Time;durP1;ratioP1;P1;durP2;ratioP2;P2;SDS_P1;SDS_P2;PMS_P1;PMS_P2;Temp;Humidity;BMP_temperature;BMP_pressure;BME280_temperature;BME280_humidity;BME280_pressure;Samples;Min_cycle;Max_cycle;Signal;HPM_P1;HPM_P2
2023/06/03 00:01:28;;;;;;;1.38;1.15;;;11.90;99.90;;;;;;5138490;27;20046;-72
2023/06/03 00:03:54;;;;;;;1.70;1.30;;;11.90;99.90;;;;;;5137448;27;20054;-72
2023/06/03 00:06:20;;;;;;;1.75;1.50;;;11.80;99.90;;;;;;5156435;27;20039;-72
2023/06/03 00:08:46;;;;;;;2.38;1.65;;;11.80;99.90;;;;;;5156624;27;20039;-72
2023/06/03 00:11:13;;;;;;;2.53;1.50;;;11.70;99.90;;;;;;5156462;27;20047;-72
2023/06/03 00:13:39;;;;;;;3.00;1.67;;;11.70;99.90;;;;;;5156926;27;20042;-73
2023/06/03 00:16:06;;;;;;;1.52;1.20;;;11.60;99.90;;;;;;5156807;27;20082;-73
2023/06/03 00:18:31;;;;;;;2.40;1.58;;;11.60;99.90;;;;;;5138302;27;20053;-72
2023/06/03 00:20:57;;;;;;;3.70;1.27;;;11.60;99.90;;;;;;5156332;27;20046;-72
2023/06/03 00:23:23;;;;;;;2.22;1.58;;;11.50;99.90;;;;;;5156102;27;20099;-73
2023/06/03 00:25:49;;;;;;;5.38;1.40;;;11.50;99.90;;;;;;5156363;27;20038;-72
2023/06/03 00:28:15;;;;;;;2.22;1.55;;;11.40;99.90;;;;;;5155854;27;20054;-72
2023/06/03 00:30:41;;;;;;;4.32;1.27;;;11.40;99.90;;;;;;5156225;27;20043;-72
2023/06/03 00:33:07;;;;;;;2.85;1.77;;;11.30;99.90;;;;;;5156205;27;20447;-73
2023/06/03 00:35:33;;;;;;;2.90;1.50;;;11.30;99.90;;;;;;5138003;27;20047;-72
2023/06/03 00:37:59;;;;;;;1.80;1.58;;;11.20;99.90;;;;;;5156465;27;20056;-72
2023/06/03 00:40:25;;;;;;;2.80;1.73;;;11.20;99.90;;;;;;5156353;27;20515;-73
2023/06/03 00:42:50;;;;;;;1.90;1.70;;;11.20;99.90;;;;;;5155829;27;20046;-73
2023/06/03 00:45:16;;;;;;;3.80;1.75;;;11.20;99.90;;;;;;5155915;27;20047;-72
2023/06/03 00:47:43;;;;;;;2.83;1.65;;;11.20;99.90;;;;;;5155931;27;20055;-72
2023/06/03 00:50:10;;;;;;;3.13;1.70;;;11.20;99.90;;;;;;5156837;27;20034;-72
2023/06/03 00:52:38;;;;;;;4.32;1.58;;;11.10;99.90;;;;;;5137821;27;20050;-73
2023/06/03 00:55:05;;;;;;;3.22;1.55;;;11.10;99.90;;;;;;5155806;27;20046;-72
2023/06/03 00:57:30;;;;;;;2.38;1.30;;;11.10;99.90;;;;;;5155486;27;20043;-73
2023/06/03 00:59:56;;;;;;;4.32;1.60;;;11.10;99.90;;;;;;5155519;27;20151;-72
2023/06/03 01:02:23;;;;;;;1.83;1.55;;;11.00;99.90;;;;;;5137274;27;20058;-73
2023/06/03 01:04:50;;;;;;;4.65;1.63;;;10.90;99.90;;;;;;5155361;27;20122;-72
2023/06/03 01:08:07;;;;;;;4.93;1.85;;;10.90;99.90;;;;;;5155212;27;20039;-73
2023/06/03 01:10:40;;;;;;;2.72;1.55;;;10.90;99.90;;;;;;5134220;27;20066;-72
2023/06/03 01:13:43;;;;;;;3.35;1.90;;;10.80;99.90;;;;;;5155272;27;20051;-72
2023/06/03 01:16:11;;;;;;;1.92;1.58;;;10.70;99.90;;;;;;5101240;27;20057;-72
2023/06/03 01:18:38;;;;;;;4.65;1.48;;;10.60;99.90;;;;;;5155542;27;20129;-73
2023/06/03 01:21:05;;;;;;;2.97;2.10;;;10.60;99.90;;;;;;5155501;27;20049;-72
2023/06/03 01:23:33;;;;;;;2.22;1.52;;;10.50;99.90;;;;;;5156126;27;20053;-73
2023/06/03 01:26:01;;;;;;;2.17;1.60;;;10.50;99.90;;;;;;5155097;27;20034;-72
2023/06/03 01:28:28;;;;;;;3.08;1.70;;;10.50;99.90;;;;;;5155182;27;20107;-72
2023/06/03 01:30:57;;;;;;;2.78;1.67;;;10.50;99.90;;;;;;5154691;27;20085;-72
2023/06/03 01:33:25;;;;;;;3.30;1.67;;;10.50;99.90;;;;;;5136435;27;20109;-73
2023/06/03 01:35:53;;;;;;;2.03;1.83;;;10.50;99.90;;;;;;5154795;27;20045;-72
2023/06/03 01:38:20;;;;;;;2.88;1.70;;;10.50;99.90;;;;;;5154841;27;20047;-73
2023/06/03 01:40:46;;;;;;;1.42;1.33;;;10.40;99.90;;;;;;5136183;27;20518;-73
2023/06/03 01:43:11;;;;;;;1.73;1.52;;;10.40;99.90;;;;;;5154750;27;20121;-73
2023/06/03 01:45:37;;;;;;;5.97;2.03;;;10.50;99.90;;;;;;5155320;27;20480;-73
2023/06/03 01:48:04;;;;;;;3.20;2.03;;;10.40;99.90;;;;;;5155489;27;20094;-72
2023/06/03 01:50:29;;;;;;;3.20;1.73;;;10.30;99.90;;;;;;5155923;27;20046;-71
2023/06/03 01:52:55;;;;;;;2.22;1.40;;;10.30;99.90;;;;;;5155598;27;20054;-72
2023/06/03 01:55:21;;;;;;;2.25;1.58;;;10.30;99.90;;;;;;5155373;27;20047;-72
2023/06/03 01:57:47;;;;;;;3.45;1.85;;;10.30;99.90;;;;;;5154811;27;20046;-73
2023/06/03 02:00:13;;;;;;;2.33;1.33;;;10.30;99.90;;;;;;5154937;27;20087;-72
2023/06/03 02:02:39;;;;;;;1.35;1.25;;;10.30;99.90;;;;;;5154992;27;20042;-72
2023/06/03 02:05:05;;;;;;;2.05;1.30;;;10.30;99.90;;;;;;5136483;27;20042;-71
2023/06/03 02:07:31;;;;;;;3.33;1.83;;;10.30;99.90;;;;;;5136412;27;20096;-72
2023/06/03 02:09:58;;;;;;;1.67;1.48;;;10.20;99.90;;;;;;5136319;27;20034;-73
2023/06/03 02:12:24;;;;;;;1.98;1.38;;;10.20;99.90;;;;;;5154476;27;20047;-72
2023/06/03 02:14:53;;;;;;;1.70;1.60;;;10.10;99.90;;;;;;5154297;27;20042;-72
2023/06/03 02:17:24;;;;;;;2.55;1.30;;;10.10;99.90;;;;;;5154634;27;20039;-73
2023/06/03 02:19:51;;;;;;;1.65;1.10;;;10.10;99.90;;;;;;5154403;27;20077;-72
2023/06/03 02:22:17;;;;;;;1.92;1.30;;;10.10;99.90;;;;;;5119246;27;20043;-73
2023/06/03 02:24:46;;;;;;;1.30;1.20;;;10.10;99.90;;;;;;5154084;27;20043;-73
2023/06/03 02:27:14;;;;;;;1.30;1.13;;;10.00;99.90;;;;;;5153959;27;20078;-72
2023/06/03 02:29:41;;;;;;;1.83;1.50;;;10.00;99.90;;;;;;5154137;27;20038;-72
2023/06/03 02:32:07;;;;;;;2.17;1.52;;;10.00;99.90;;;;;;5154172;27;20058;-72
2023/06/03 02:34:33;;;;;;;2.33;1.17;;;10.00;99.90;;;;;;5154333;27;20050;-72
2023/06/03 02:36:59;;;;;;;1.67;1.52;;;9.90;99.90;;;;;;5154387;27;20034;-73
2023/06/03 02:39:25;;;;;;;2.72;1.60;;;9.90;99.90;;;;;;5154251;27;20412;-73
2023/06/03 02:41:50;;;;;;;2.33;1.20;;;9.90;99.90;;;;;;5154127;27;20535;-73
2023/06/03 02:44:17;;;;;;;1.67;1.10;;;9.90;99.90;;;;;;5153722;27;20046;-73
2023/06/03 02:46:44;;;;;;;1.85;1.20;;;9.80;99.90;;;;;;5135378;27;20046;-74
2023/06/03 02:49:10;;;;;;;1.67;1.15;;;10.30;99.90;;;;;;5153971;27;20046;-73
2023/06/03 02:51:42;;;;;;;3.00;1.77;;;9.70;99.90;;;;;;5154355;27;20047;-73
2023/06/03 02:54:07;;;;;;;2.30;1.30;;;9.70;99.90;;;;;;5135687;27;20049;-73
2023/06/03 02:56:33;;;;;;;3.25;1.40;;;9.70;99.90;;;;;;5118151;27;20035;-72
2023/06/03 02:58:59;;;;;;;2.30;1.45;;;9.80;99.90;;;;;;5154248;27;20057;-72
2023/06/03 03:01:27;;;;;;;2.83;1.50;;;9.70;99.90;;;;;;5153656;27;20046;-73
2023/06/03 03:03:52;;;;;;;2.63;1.60;;;9.60;99.90;;;;;;5153870;27;20133;-72
2023/06/03 03:06:21;;;;;;;1.38;1.27;;;9.60;99.90;;;;;;5153728;27;20070;-72
2023/06/03 03:08:53;;;;;;;1.30;1.20;;;9.60;99.90;;;;;;5154369;27;20046;-72
2023/06/03 03:11:19;;;;;;;3.10;1.45;;;9.50;99.90;;;;;;5118527;27;20443;-72
2023/06/03 03:13:45;;;;;;;1.25;1.15;;;9.50;99.90;;;;;;5153961;27;20049;-71
2023/06/03 03:16:12;;;;;;;3.08;1.50;;;9.50;99.90;;;;;;5153340;27;20038;-72
2023/06/03 03:18:39;;;;;;;1.38;1.25;;;9.50;99.90;;;;;;5134866;27;20061;-72
2023/06/03 03:21:05;;;;;;;4.00;1.55;;;9.50;99.90;;;;;;5153624;27;20498;-73
2023/06/03 03:23:31;;;;;;;3.25;1.58;;;9.50;99.90;;;;;;5153708;27;20046;-73
2023/06/03 03:25:58;;;;;;;2.58;1.50;;;9.60;99.90;;;;;;5153515;27;20087;-72
2023/06/03 03:28:24;;;;;;;1.58;1.42;;;9.50;99.90;;;;;;5153706;27;20047;-72
2023/06/03 03:30:50;;;;;;;4.47;1.25;;;9.50;99.90;;;;;;5135887;27;20435;-73
2023/06/03 03:33:20;;;;;;;5.10;1.63;;;9.50;99.90;;;;;;5134836;27;20050;-72
2023/06/03 03:35:48;;;;;;;1.60;1.50;;;9.40;99.90;;;;;;5153273;27;20042;-73
2023/06/03 03:38:15;;;;;;;3.30;1.55;;;9.50;99.90;;;;;;5154442;27;20058;-73
2023/06/03 03:40:40;;;;;;;2.15;1.70;;;9.50;99.90;;;;;;5157416;27;20043;-72
2023/06/03 03:43:18;;;;;;;2.58;1.70;;;9.50;99.90;;;;;;5121659;27;20452;-72
2023/06/03 03:45:44;;;;;;;2.95;1.67;;;9.50;99.90;;;;;;5157311;27;20114;-72
2023/06/03 03:48:13;;;;;;;2.45;1.70;;;9.50;99.90;;;;;;5157329;27;20096;-72
2023/06/03 03:50:46;;;;;;;2.78;1.75;;;9.50;99.90;;;;;;5156910;27;20042;-72
2023/06/03 03:53:21;;;;;;;1.95;1.67;;;9.50;99.90;;;;;;5157068;27;20046;-73
2023/06/03 03:55:48;;;;;;;1.98;1.42;;;9.50;99.90;;;;;;5157119;27;20046;-72
2023/06/03 03:58:26;;;;;;;1.50;1.33;;;9.50;99.90;;;;;;5156739;27;20073;-73
2023/06/03 04:00:54;;;;;;;1.95;1.48;;;9.60;99.90;;;;;;5156984;27;20047;-73
2023/06/03 04:03:23;;;;;;;2.17;1.77;;;9.60;99.90;;;;;;5156583;27;20046;-73
2023/06/03 04:05:49;;;;;;;2.70;2.05;;;9.60;99.90;;;;;;5156305;27;20492;-73
2023/06/03 04:08:40;;;;;;;1.73;1.52;;;9.60;99.90;;;;;;5157096;27;20043;-72
2023/06/03 04:11:08;;;;;;;2.97;1.70;;;9.60;99.90;;;;;;5156548;27;20050;-71
2023/06/03 04:13:40;;;;;;;1.50;1.40;;;9.60;99.90;;;;;;5156844;27;20406;-72
2023/06/03 04:16:10;;;;;;;2.35;1.58;;;9.60;99.90;;;;;;5157212;27;20045;-73
2023/06/03 04:18:41;;;;;;;3.90;1.70;;;9.70;99.90;;;;;;5138576;27;20051;-72
2023/06/03 04:21:14;;;;;;;3.70;2.20;;;9.70;99.90;;;;;;5156463;27;20043;-72
2023/06/03 04:23:40;;;;;;;3.15;1.63;;;9.70;99.90;;;;;;5156633;27;20129;-72
2023/06/03 04:26:07;;;;;;;2.20;1.75;;;9.80;99.90;;;;;;5156782;27;20085;-72
2023/06/03 04:28:32;;;;;;;3.08;1.83;;;9.80;99.90;;;;;;5137782;27;20093;-72
2023/06/03 04:30:58;;;;;;;2.20;1.95;;;9.80;99.90;;;;;;5156186;27;20078;-72
2023/06/03 04:33:25;;;;;;;2.90;1.90;;;9.90;99.90;;;;;;5156725;27;20081;-71
2023/06/03 04:35:51;;;;;;;4.38;2.20;;;10.00;99.90;;;;;;5155756;27;20043;-72
2023/06/03 04:38:16;;;;;;;3.25;2.35;;;10.00;99.90;;;;;;5137769;27;20042;-72
2023/06/03 04:40:45;;;;;;;2.58;1.60;;;10.10;99.90;;;;;;5156214;27;20192;-72
2023/06/03 04:43:11;;;;;;;4.45;2.03;;;10.10;99.90;;;;;;5137865;27;20054;-72
2023/06/03 04:45:37;;;;;;;4.30;2.05;;;10.20;99.90;;;;;;5137650;27;20035;-71
2023/06/03 04:48:03;;;;;;;3.50;2.03;;;10.30;99.90;;;;;;5120211;27;20062;-71
2023/06/03 04:50:35;;;;;;;3.50;1.95;;;10.40;99.90;;;;;;5155397;27;20490;-72
2023/06/03 04:53:01;;;;;;;5.35;2.35;;;10.40;99.90;;;;;;5156078;27;20042;-72
2023/06/03 04:55:27;;;;;;;3.97;2.30;;;10.40;99.90;;;;;;5155565;27;20043;-72
2023/06/03 04:57:52;;;;;;;2.70;2.20;;;10.50;99.90;;;;;;5155343;27;20447;-72
2023/06/03 05:00:19;;;;;;;3.25;2.20;;;10.50;99.90;;;;;;5120504;27;20046;-73
2023/06/03 05:02:54;;;;;;;3.72;2.72;;;10.60;99.90;;;;;;5156338;27;20057;-72
2023/06/03 05:05:22;;;;;;;4.05;2.70;;;10.70;99.90;;;;;;5158020;27;20066;-71
2023/06/03 05:07:48;;;;;;;5.38;2.75;;;10.70;99.90;;;;;;5138098;27;20050;-72
2023/06/03 05:10:13;;;;;;;3.97;2.70;;;10.80;99.90;;;;;;5156023;27;20042;-73
2023/06/03 05:12:40;;;;;;;5.20;2.70;;;10.90;99.90;;;;;;5155639;27;20042;-72
2023/06/03 05:15:07;;;;;;;2.75;2.40;;;11.00;99.90;;;;;;5155565;27;20082;-72
2023/06/03 05:17:33;;;;;;;3.55;3.22;;;11.10;99.90;;;;;;5155661;27;20042;-72
2023/06/03 05:19:59;;;;;;;4.60;2.92;;;11.20;99.90;;;;;;5154922;27;20448;-72
2023/06/03 05:22:25;;;;;;;3.92;2.95;;;11.30;99.90;;;;;;5137139;27;20051;-72
2023/06/03 05:24:50;;;;;;;7.28;3.45;;;11.30;99.90;;;;;;5155471;27;20155;-71
2023/06/03 05:27:16;;;;;;;4.13;2.67;;;11.40;99.90;;;;;;5155321;27;20038;-72
2023/06/03 05:29:42;;;;;;;4.05;3.13;;;11.60;99.90;;;;;;5155116;27;20135;-73
2023/06/03 05:32:08;;;;;;;4.72;3.58;;;11.70;99.90;;;;;;5155055;27;20038;-71
2023/06/03 05:34:33;;;;;;;3.28;2.78;;;11.80;99.90;;;;;;5155293;27;20091;-73
2023/06/03 05:36:59;;;;;;;4.13;2.50;;;10.50;99.90;;;;;;5154707;27;20549;-72
2023/06/03 05:39:25;;;;;;;2.30;2.10;;;12.00;99.90;;;;;;5154809;27;20510;-73
2023/06/03 05:41:50;;;;;;;3.00;1.95;;;12.20;99.90;;;;;;5154643;27;20494;-72
2023/06/03 05:44:16;;;;;;;4.07;1.77;;;12.40;99.90;;;;;;5155165;27;20046;-72
2023/06/03 05:46:41;;;;;;;4.13;2.00;;;12.60;99.90;;;;;;5154491;27;20058;-71
2023/06/03 05:49:07;;;;;;;2.28;1.50;;;12.80;99.90;;;;;;5155200;27;20049;-72
2023/06/03 05:51:33;;;;;;;2.65;1.40;;;13.00;99.90;;;;;;5154586;27;20043;-72
2023/06/03 05:53:58;;;;;;;2.10;1.67;;;13.20;99.90;;;;;;5154451;27;20133;-73
2023/06/03 05:56:24;;;;;;;2.25;1.60;;;13.40;99.90;;;;;;5154388;27;20035;-73
2023/06/03 05:58:50;;;;;;;2.53;1.95;;;13.60;99.90;;;;;;5136615;27;20042;-73
2023/06/03 06:01:16;;;;;;;2.90;1.60;;;13.90;99.90;;;;;;5153879;27;20451;-74
2023/06/03 06:03:41;;;;;;;2.05;1.65;;;14.10;99.50;;;;;;5119171;27;20053;-72
2023/06/03 06:06:07;;;;;;;3.70;1.67;;;14.30;99.00;;;;;;5154329;27;20397;-73
2023/06/03 06:08:33;;;;;;;3.80;1.85;;;14.40;98.70;;;;;;5154289;27;20604;-73
2023/06/03 06:10:58;;;;;;;2.80;1.50;;;14.50;98.70;;;;;;5154213;27;20061;-72
2023/06/03 06:13:24;;;;;;;1.58;1.42;;;14.60;98.70;;;;;;5153874;27;20129;-73
2023/06/03 06:15:58;;;;;;;2.38;1.60;;;14.70;98.80;;;;;;5154684;27;20116;-72
2023/06/03 06:18:23;;;;;;;1.58;1.48;;;14.90;98.50;;;;;;5135991;27;20472;-73
2023/06/03 06:20:49;;;;;;;3.22;1.77;;;15.20;98.20;;;;;;5154423;27;20049;-72
2023/06/03 06:23:15;;;;;;;3.30;1.48;;;16.00;97.90;;;;;;5154528;27;20047;-73
2023/06/03 06:25:50;;;;;;;3.45;1.95;;;16.40;96.90;;;;;;5154102;27;20053;-73
2023/06/03 06:28:22;;;;;;;7.57;1.70;;;16.80;95.70;;;;;;5154248;27;20501;-73
2023/06/03 06:30:51;;;;;;;2.80;1.30;;;17.40;95.40;;;;;;5154809;27;20091;-74
2023/06/03 06:33:17;;;;;;;2.25;1.60;;;18.30;95.00;;;;;;5154101;27;20046;-74
2023/06/03 06:35:44;;;;;;;1.95;1.42;;;19.20;94.30;;;;;;5154775;27;20038;-73
2023/06/03 06:38:11;;;;;;;2.00;1.33;;;20.20;93.60;;;;;;5136302;27;20109;-74
2023/06/03 06:40:38;;;;;;;3.75;1.50;;;21.10;92.60;;;;;;5153837;27;20043;-74
2023/06/03 06:43:05;;;;;;;1.27;1.17;;;21.60;92.00;;;;;;5135647;27;20511;-73
2023/06/03 06:45:34;;;;;;;4.43;1.35;;;22.10;91.20;;;;;;5136132;27;20126;-74
2023/06/03 06:48:04;;;;;;;2.03;1.48;;;22.70;90.00;;;;;;5153695;27;20057;-73
2023/06/03 06:50:54;;;;;;;1.88;1.30;;;23.20;88.80;;;;;;5154144;27;20050;-73
2023/06/03 06:53:21;;;;;;;3.30;1.27;;;23.50;85.00;;;;;;5153843;27;20047;-73
2023/06/03 06:55:54;;;;;;;3.95;2.03;;;23.80;85.50;;;;;;5154010;27;20046;-73
2023/06/03 06:58:21;;;;;;;1.45;1.23;;;23.80;83.90;;;;;;5154301;27;20042;-73
2023/06/03 07:00:48;;;;;;;2.55;1.00;;;23.70;83.40;;;;;;5154036;27;20074;-73
2023/06/03 07:03:21;;;;;;;1.98;1.00;;;23.90;81.00;;;;;;5153698;27;20042;-73
2023/06/03 07:05:52;;;;;;;3.08;1.65;;;24.10;79.50;;;;;;5154171;27;20034;-73
2023/06/03 07:08:18;;;;;;;1.80;0.98;;;24.50;81.10;;;;;;5153911;27;20047;-72
2023/06/03 07:10:44;;;;;;;5.05;1.13;;;24.90;80.10;;;;;;5153480;27;20038;-74
2023/06/03 07:13:13;;;;;;;3.85;1.23;;;24.70;78.10;;;;;;5155839;27;20491;-74
2023/06/03 07:15:41;;;;;;;1.70;0.70;;;25.10;77.50;;;;;;5157426;27;20047;-74
2023/06/03 07:18:12;;;;;;;4.05;1.10;;;25.60;75.50;;;;;;5157320;27;20399;-74
2023/06/03 07:20:45;;;;;;;1.02;0.93;;;26.00;74.40;;;;;;5138922;27;20053;-74
2023/06/03 07:23:45;;;;;;;1.95;0.98;;;26.20;72.10;;;;;;5158409;27;20047;-75
2023/06/03 07:26:10;;;;;;;1.65;0.95;;;26.20;69.00;;;;;;5137690;27;20051;-73
2023/06/03 07:28:37;;;;;;;2.25;0.80;;;26.30;70.70;;;;;;5157283;27;20061;-73
2023/06/03 07:31:06;;;;;;;3.15;1.20;;;26.50;70.40;;;;;;5139019;27;20066;-73
2023/06/03 07:33:52;;;;;;;1.38;0.90;;;26.80;69.40;;;;;;5157311;27;20425;-75
2023/06/03 07:36:20;;;;;;;1.80;0.90;;;26.80;66.60;;;;;;5157128;27;20039;-72
2023/06/03 07:39:06;;;;;;;2.67;1.08;;;26.80;67.30;;;;;;5156884;27;20491;-74
2023/06/03 07:41:36;;;;;;;0.80;0.80;;;26.80;67.10;;;;;;5157321;27;20552;-75
2023/06/03 07:44:06;;;;;;;1.70;0.70;;;26.80;66.00;;;;;;5157639;27;20034;-73
2023/06/03 07:47:01;;;;;;;1.90;1.10;;;26.80;65.60;;;;;;5139002;27;20559;-74
2023/06/03 07:49:27;;;;;;;1.70;0.77;;;27.00;62.80;;;;;;5135386;27;20519;-74
2023/06/03 07:51:53;;;;;;;1.17;1.05;;;27.20;64.70;;;;;;5157523;27;20042;-74
2023/06/03 07:54:19;;;;;;;2.80;0.85;;;27.10;63.40;;;;;;5156883;27;20050;-76
2023/06/03 07:56:45;;;;;;;1.30;0.73;;;27.10;63.30;;;;;;5157457;27;20042;-74
2023/06/03 07:59:15;;;;;;;0.85;0.82;;;27.10;62.30;;;;;;5156986;27;20057;-74
2023/06/03 08:01:42;;;;;;;4.97;1.08;;;27.00;61.60;;;;;;5138539;27;20055;-75
2023/06/03 08:04:20;;;;;;;0.63;0.63;;;27.40;61.40;;;;;;5156856;27;20166;-74
2023/06/03 08:06:49;;;;;;;1.67;1.10;;;27.70;59.40;;;;;;5156675;27;20050;-73
2023/06/03 08:09:32;;;;;;;2.08;0.88;;;27.70;59.90;;;;;;5138309;27;20105;-73
2023/06/03 08:12:00;;;;;;;0.75;0.70;;;27.30;57.90;;;;;;5156647;27;20057;-74
2023/06/03 08:14:26;;;;;;;1.73;1.20;;;27.00;58.70;;;;;;5156657;27;20487;-72
2023/06/03 08:16:53;;;;;;;1.27;0.75;;;26.60;59.20;;;;;;5156357;27;20049;-73
2023/06/03 08:19:18;;;;;;;1.05;0.70;;;26.00;58.50;;;;;;5157217;27;20050;-72
2023/06/03 08:21:44;;;;;;;0.95;0.80;;;25.50;58.50;;;;;;5138605;27;20050;-73
2023/06/03 08:24:12;;;;;;;1.83;0.80;;;24.60;58.00;;;;;;5156452;27;20070;-70
2023/06/03 08:26:38;;;;;;;2.85;1.00;;;23.80;58.10;;;;;;5138460;27;20034;-74
2023/06/03 08:29:04;;;;;;;2.05;0.88;;;23.00;58.10;;;;;;5156257;27;20047;-72
2023/06/03 08:31:33;;;;;;;1.60;1.00;;;22.30;59.20;;;;;;5138555;27;20043;-72
2023/06/03 08:34:01;;;;;;;1.65;0.63;;;22.00;59.30;;;;;;5156109;27;20043;-73
2023/06/03 08:36:26;;;;;;;1.00;0.80;;;21.60;59.90;;;;;;5156583;27;20097;-74
2023/06/03 08:38:53;;;;;;;1.33;0.75;;;21.20;59.40;;;;;;5156159;27;20487;-71
2023/06/03 08:41:19;;;;;;;1.40;0.90;;;20.80;58.90;;;;;;5156069;27;20054;-72
2023/06/03 08:43:53;;;;;;;1.15;0.80;;;20.70;59.00;;;;;;5137807;27;20042;-72
2023/06/03 08:46:25;;;;;;;1.58;0.90;;;20.90;59.40;;;;;;5156412;27;20046;-72
2023/06/03 08:49:03;;;;;;;1.47;0.80;;;21.20;59.60;;;;;;5156512;27;20094;-72
2023/06/03 08:51:38;;;;;;;0.93;0.55;;;21.60;60.30;;;;;;5155979;27;20054;-72
2023/06/03 08:54:18;;;;;;;0.70;0.70;;;22.10;60.30;;;;;;5156496;27;20087;-72
2023/06/03 08:56:59;;;;;;;1.70;0.88;;;22.40;59.80;;;;;;5137888;27;20069;-71
2023/06/03 08:59:28;;;;;;;4.10;1.40;;;22.60;59.70;;;;;;5155636;27;20121;-72
2023/06/03 09:01:56;;;;;;;0.93;0.70;;;23.00;59.30;;;;;;5119835;27;20050;-73
2023/06/03 09:04:25;;;;;;;1.17;0.80;;;23.20;59.40;;;;;;5155989;27;20050;-72
2023/06/03 09:06:51;;;;;;;2.72;1.00;;;23.70;59.90;;;;;;5155271;27;20034;-72
2023/06/03 09:09:18;;;;;;;2.22;0.98;;;24.20;59.00;;;;;;5155361;27;20043;-72
2023/06/03 09:11:47;;;;;;;5.32;1.10;;;24.60;59.20;;;;;;5156026;27;20121;-72
2023/06/03 09:14:14;;;;;;;4.43;0.93;;;24.70;58.90;;;;;;5155277;27;20038;-72
2023/06/03 09:16:40;;;;;;;2.55;0.82;;;24.80;58.80;;;;;;5155600;27;20051;-73
2023/06/03 09:19:06;;;;;;;1.00;0.90;;;24.90;58.20;;;;;;5155809;27;20050;-73
2023/06/03 09:21:33;;;;;;;2.67;0.98;;;24.80;57.60;;;;;;5137135;27;20043;-74
2023/06/03 09:23:59;;;;;;;1.63;0.82;;;24.70;58.10;;;;;;5119804;27;20046;-74
2023/06/03 09:26:25;;;;;;;1.17;0.80;;;24.80;57.90;;;;;;5155090;27;20496;-73
2023/06/03 09:28:51;;;;;;;1.63;1.15;;;24.80;58.10;;;;;;5155330;27;20073;-73
2023/06/03 09:31:18;;;;;;;0.80;0.80;;;24.70;58.60;;;;;;5155174;27;20485;-71
2023/06/03 09:33:45;;;;;;;0.93;0.80;;;24.90;58.30;;;;;;5136129;27;20376;-70
2023/06/03 09:36:12;;;;;;;0.95;0.82;;;25.20;58.30;;;;;;5153807;27;20079;-69
2023/06/03 09:38:55;;;;;;;2.15;0.80;;;25.40;57.00;;;;;;5155262;27;20047;-70
2023/06/03 09:41:30;;;;;;;2.05;0.93;;;25.50;56.90;;;;;;5154719;27;20043;-69
2023/06/03 09:44:02;;;;;;;1.40;0.70;;;25.20;56.80;;;;;;5154874;27;20065;-70
2023/06/03 09:46:31;;;;;;;1.17;1.05;;;25.00;57.10;;;;;;5154221;27;20545;-69
2023/06/03 09:49:16;;;;;;;2.83;1.20;;;25.20;56.60;;;;;;5154623;27;20061;-71
2023/06/03 09:51:49;;;;;;;2.55;1.75;;;25.10;56.80;;;;;;5154585;27;20050;-69
2023/06/03 09:54:15;;;;;;;;;;;25.00;56.80;;;;;;5155060;27;20057;-70
2023/06/03 09:56:42;;;;;;;1.63;0.80;;;24.30;55.90;;;;;;5154386;27;19964;-70
2023/06/03 09:59:15;;;;;;;1.98;0.82;;;24.40;58.00;;;;;;5136109;27;20119;-70
2023/06/03 10:01:42;;;;;;;0.90;0.90;;;24.10;56.10;;;;;;5135643;27;20535;-70
2023/06/03 10:04:08;;;;;;;1.45;0.82;;;24.40;58.40;;;;;;5154748;27;20042;-70
2023/06/03 10:06:38;;;;;;;1.10;1.00;;;24.40;58.50;;;;;;5136090;27;20035;-71
2023/06/03 10:09:21;;;;;;;2.05;0.90;;;24.30;58.80;;;;;;5154240;27;20504;-71
2023/06/03 10:11:48;;;;;;;2.38;1.05;;;24.60;57.60;;;;;;5154367;27;20054;-70
2023/06/03 10:14:15;;;;;;;1.77;0.90;;;24.60;58.80;;;;;;5154233;27;20046;-70
2023/06/03 10:16:41;;;;;;;1.15;0.80;;;24.60;58.30;;;;;;5135488;27;20073;-70
2023/06/03 10:19:07;;;;;;;0.95;0.90;;;24.60;58.00;;;;;;5154252;27;20050;-70
2023/06/03 10:21:36;;;;;;;1.27;1.00;;;24.40;57.90;;;;;;5135814;27;20038;-70
2023/06/03 10:24:04;;;;;;;1.48;1.13;;;24.30;57.80;;;;;;5154274;27;20134;-72
2023/06/03 10:26:30;;;;;;;1.35;0.80;;;24.30;57.60;;;;;;5154108;27;20039;-70
2023/06/03 10:28:58;;;;;;;0.90;0.90;;;24.10;57.70;;;;;;5154102;27;20526;-71
2023/06/03 10:31:25;;;;;;;2.28;1.00;;;24.20;57.60;;;;;;5154218;27;20059;-70
2023/06/03 10:33:52;;;;;;;1.63;1.02;;;24.50;58.30;;;;;;5154126;27;20133;-71
2023/06/03 10:36:20;;;;;;;1.70;0.98;;;24.60;57.40;;;;;;5153615;27;20394;-71
2023/06/03 10:38:47;;;;;;;2.08;0.80;;;24.40;57.60;;;;;;5153997;27;20085;-71
2023/06/03 10:41:13;;;;;;;2.92;1.10;;;24.40;56.90;;;;;;5154421;27;20047;-70
2023/06/03 10:43:41;;;;;;;2.03;1.20;;;24.30;57.90;;;;;;5154055;27;20054;-71
2023/06/03 10:46:07;;;;;;;2.10;0.90;;;24.50;57.80;;;;;;5119148;27;20106;-72
2023/06/03 10:48:36;;;;;;;1.15;0.90;;;24.60;57.40;;;;;;5157786;27;20051;-71
2023/06/03 10:51:32;;;;;;;1.25;0.98;;;24.60;57.10;;;;;;5158706;27;20047;-71
2023/06/03 10:54:23;;;;;;;1.27;0.88;;;24.70;56.80;;;;;;5158162;27;20038;-71
2023/06/03 10:57:05;;;;;;;1.75;1.05;;;24.60;56.70;;;;;;5157657;27;20456;-71
2023/06/03 10:59:45;;;;;;;1.98;0.90;;;24.40;57.60;;;;;;5158247;27;20046;-71
2023/06/03 11:02:12;;;;;;;1.55;1.00;;;24.30;57.50;;;;;;5158143;27;20039;-71
2023/06/03 11:04:39;;;;;;;1.42;0.90;;;24.00;57.30;;;;;;5157980;27;20501;-71
2023/06/03 11:07:07;;;;;;;1.50;0.80;;;23.80;57.00;;;;;;5157866;27;20085;-71
2023/06/03 11:09:37;;;;;;;0.98;0.90;;;23.90;57.10;;;;;;5139339;27;20049;-73
2023/06/03 11:12:09;;;;;;;1.27;1.05;;;23.60;57.20;;;;;;5158129;27;20054;-73
2023/06/03 11:14:40;;;;;;;1.55;0.95;;;23.50;57.00;;;;;;5158306;27;20085;-73
2023/06/03 11:17:06;;;;;;;3.60;1.13;;;23.20;57.50;;;;;;5158160;27;20148;-72
2023/06/03 11:19:54;;;;;;;2.65;1.02;;;22.80;56.30;;;;;;5157684;27;20069;-72
2023/06/03 11:22:29;;;;;;;2.67;1.23;;;22.80;57.00;;;;;;5157457;27;20047;-72
2023/06/03 11:24:59;;;;;;;3.13;1.00;;;23.00;57.30;;;;;;5157696;27;20046;-73
2023/06/03 11:27:27;;;;;;;1.10;0.90;;;22.60;57.20;;;;;;5157597;27;20099;-72
2023/06/03 11:29:58;;;;;;;1.42;0.85;;;22.70;57.80;;;;;;5158454;27;20138;-72
2023/06/03 11:32:27;;;;;;;1.35;1.10;;;22.90;57.00;;;;;;5159367;27;20047;-71
2023/06/03 11:34:59;;;;;;;1.05;0.95;;;22.60;56.90;;;;;;5159008;27;20051;-72
2023/06/03 11:37:46;;;;;;;1.85;1.00;;;22.50;57.30;;;;;;5158065;27;20045;-71
2023/06/03 11:40:19;;;;;;;2.28;1.10;;;22.70;57.60;;;;;;5139108;27;20039;-72
2023/06/03 11:42:48;;;;;;;2.03;1.00;;;22.80;57.50;;;;;;5158277;27;20457;-73
2023/06/03 11:45:20;;;;;;;1.80;0.88;;;22.80;57.40;;;;;;5138799;27;20045;-73
2023/06/03 11:47:48;;;;;;;3.90;1.15;;;22.90;57.40;;;;;;5157184;27;20054;-73
2023/06/03 11:50:15;;;;;;;3.70;1.10;;;22.90;57.70;;;;;;5157250;27;20046;-73
2023/06/03 11:52:40;;;;;;;1.52;1.00;;;22.80;57.50;;;;;;5157251;27;20458;-73
2023/06/03 11:55:06;;;;;;;1.75;1.20;;;22.50;57.30;;;;;;5156885;27;20050;-73
2023/06/03 11:57:33;;;;;;;1.98;1.20;;;22.50;57.20;;;;;;5156794;27;20070;-73
2023/06/03 12:00:06;;;;;;;1.23;1.00;;;22.50;57.50;;;;;;5155641;27;20474;-73
2023/06/03 12:02:38;;;;;;;2.30;1.10;;;22.50;58.00;;;;;;5156891;27;20067;-72
2023/06/03 12:05:07;;;;;;;1.15;1.08;;;22.30;58.30;;;;;;5138208;27;20047;-73
2023/06/03 12:07:33;;;;;;;1.58;1.00;;;22.40;58.90;;;;;;5138049;27;20043;-72
2023/06/03 12:10:00;;;;;;;2.22;1.38;;;22.50;58.40;;;;;;5156224;27;20035;-73
2023/06/03 12:12:25;;;;;;;2.05;1.20;;;22.20;58.20;;;;;;5138770;27;20050;-71
2023/06/03 12:14:51;;;;;;;2.97;1.30;;;22.00;58.30;;;;;;5138490;27;20462;-72
2023/06/03 12:17:19;;;;;;;2.20;1.20;;;22.00;58.70;;;;;;5138112;27;20356;-73
2023/06/03 12:19:49;;;;;;;2.58;1.25;;;22.10;58.90;;;;;;5156189;27;20046;-73
2023/06/03 12:22:25;;;;;;;1.90;1.40;;;22.20;58.10;;;;;;5156665;27;20050;-73
2023/06/03 12:24:52;;;;;;;5.13;1.30;;;22.30;58.30;;;;;;5138496;27;20049;-74
2023/06/03 12:27:22;;;;;;;3.47;1.33;;;22.40;58.00;;;;;;5156304;27;20039;-72
2023/06/03 12:29:57;;;;;;;2.45;1.20;;;22.50;57.90;;;;;;5156348;27;20069;-73
2023/06/03 12:32:25;;;;;;;1.60;0.85;;;22.50;59.20;;;;;;5156709;27;20043;-72
2023/06/03 12:34:51;;;;;;;1.15;1.05;;;22.50;58.80;;;;;;5137925;27;20078;-73
2023/06/03 12:37:30;;;;;;;1.50;1.20;;;22.50;57.90;;;;;;5120454;27;20042;-72
2023/06/03 12:39:57;;;;;;;2.92;1.30;;;22.50;58.40;;;;;;5156049;27;20078;-72
2023/06/03 12:42:39;;;;;;;1.38;1.27;;;22.60;58.30;;;;;;5155560;27;20501;-72
2023/06/03 12:45:06;;;;;;;1.30;1.10;;;22.70;57.90;;;;;;5156279;27;20530;-72
2023/06/03 12:47:47;;;;;;;1.20;1.10;;;22.70;58.80;;;;;;5156315;27;20095;-73
2023/06/03 12:50:14;;;;;;;1.17;0.95;;;22.70;59.40;;;;;;5137530;27;20131;-73
2023/06/03 12:52:41;;;;;;;3.50;1.05;;;22.70;59.50;;;;;;5155680;27;20047;-72
2023/06/03 12:55:09;;;;;;;2.95;1.17;;;22.60;59.60;;;;;;5137289;27;20042;-72
2023/06/03 12:57:37;;;;;;;1.20;1.10;;;22.70;60.10;;;;;;5155511;27;20102;-72